Flight Track Log - Related Links

Times and Time Zones

All times are in EDT time to prevent confusion due to time zone crossing. See the UAL4274 flight status page for this flight to view local times or setup timezone preferences in your user account.

Time Position Orientation Groundspeed Altitude Reporting Facility
EDT Latitude Longitude Course Direction KTS MPH feet Rate Location/Type
Sun 10:00:54 AM 29.9769 -95.3031 337° Northwest 232 267 500  Level Houston Center
Sun 10:01:42 AM 30.0061 -95.2778 37° Northeast 203 234 2,100 1,735 Climbing Houston Center
Sun 10:02:17 AM 30.0300 -95.2872 341° North 227 261 2,900 2,149 Climbing Houston Center
Sun 10:02:49 AM 30.0756 -95.3033 343° North 255 293 4,500 2,710 Climbing Houston Center
Sun 10:03:19 AM 30.1075 -95.3239 331° Northwest 251 289 5,700 2,400 Climbing Houston Center
Sun 10:03:44 AM 30.1322 -95.3472 321° Northwest 264 304 6,700 2,164 Climbing Houston Center
Sun 10:04:20 AM 30.1706 -95.3744 328° Northwest 265 305 7,900 2,165 Climbing Houston Center
Sun 10:05:21 AM 30.2339 -95.4222 327° Northwest 276 318 10,200 1,707 Climbing Houston Center
Sun 10:06:00 AM 30.5149 -95.6408 337° Northwest  Level FlightAware Approximate
Sun 10:06:23 AM 30.3047 -95.4767 326° Northwest 301 346 11,400  Level Houston Center
Sun 10:07:24 AM 30.3825 -95.5369 326° Northwest 329 379 13,100 1,721 Climbing Houston Center
Sun 10:08:25 AM 30.4606 -95.5939 328° Northwest 333 383 14,900 1,659 Climbing Houston Center
Sun 10:09:27 AM 30.5378 -95.6547 326° Northwest 337 388 16,500 1,366 Climbing Houston Center
Sun 10:10:28 AM 30.6261 -95.7014 336° Northwest 347 399 17,700 1,463 Climbing Houston Center
Sun 10:11:30 AM 30.7186 -95.7500 336° Northwest 344 396 19,500 1,756 Climbing Houston Center
Sun 10:12:31 AM 30.8033 -95.7953 335° Northwest 338 389 21,300 1,805 Climbing Houston Center
Sun 10:13:33 AM 30.9036 -95.8478 336° Northwest 330 380 23,200 1,561 Climbing Houston Center
Sun 10:14:34 AM 30.9869 -95.8933 335° Northwest 330 380 24,500 1,171 Climbing Houston Center
Sun 10:15:36 AM 31.0719 -95.9394 335° Northwest 333 383 25,600 1,024 Climbing Houston Center
Sun 10:16:37 AM 31.1611 -95.9822 338° Northwest 344 396 26,600 1,000 Climbing Houston Center
Sun 10:16:54 AM 31.1908 -95.9928 343° North 328 377 26,900 1,013 Climbing Fort Worth Center
Sun 10:17:54 AM 31.2808 -96.0278 342° North 340 391 27,900 1,000 Climbing Fort Worth Center
Sun 10:18:54 AM 31.3731 -96.0631 342° North 345 397 28,900 1,000 Climbing Fort Worth Center
Sun 10:19:54 AM 31.4611 -96.0983 341° North 345 397 29,900 1,000 Climbing Fort Worth Center
Sun 10:20:54 AM 31.5556 -96.1333 342° North 351 404 30,900 1,150 Climbing Fort Worth Center
Sun 10:21:54 AM 31.6456 -96.1689 341° North 343 395 32,200 1,250 Climbing Fort Worth Center
Sun 10:22:54 AM 31.7358 -96.2042 342° North 350 403 33,400 900 Climbing Fort Worth Center
Sun 10:23:54 AM 31.8258 -96.2447 339° North 345 397 34,000 300 Climbing Fort Worth Center
Sun 10:24:54 AM 31.9075 -96.2753 342° North 351 404 34,000  Level Fort Worth Center
Sun 10:25:54 AM 32.0122 -96.3133 343° North 368 423 34,000  Level Fort Worth Center
Sun 10:26:54 AM 32.1086 -96.3514 342° North 373 429 34,000  Level Fort Worth Center
Sun 10:27:54 AM 32.2050 -96.3919 340° North 367 422 34,000  Level Fort Worth Center
Sun 10:28:54 AM 32.3056 -96.4278 343° North 372 428 34,000  Level Fort Worth Center
Sun 10:29:54 AM 32.4019 -96.4636 343° North 367 422 34,000  Level Fort Worth Center
Sun 10:30:54 AM 32.5003 -96.5019 342° North 367 422 34,000  Level Fort Worth Center
Sun 10:31:54 AM 32.6133 -96.5453 342° North 372 428 34,000  Level Fort Worth Center
Sun 10:32:54 AM 32.7181 -96.5861 342° North 384 442 34,000  Level Fort Worth Center
Sun 10:33:54 AM 32.8183 -96.6247 342° North 384 442 34,000  Level Fort Worth Center
Sun 10:34:54 AM 32.9208 -96.6636 342° North 384 442 34,000  Level Fort Worth Center
Sun 10:35:54 AM 33.0256 -96.7047 342° North 384 442 34,000  Level Fort Worth Center
Sun 10:36:54 AM 33.1300 -96.7436 343° North 384 442 34,000  Level Fort Worth Center
Sun 10:37:54 AM 33.2347 -96.7850 342° North 384 442 34,000  Level Fort Worth Center
Sun 10:38:54 AM 33.3392 -96.8267 342° North 384 442 34,000  Level Fort Worth Center
Sun 10:39:54 AM 33.4439 -96.8658 343° North 384 442 34,000  Level Fort Worth Center
Sun 10:40:54 AM 33.5442 -96.9075 341° North 379 436 34,000  Level Fort Worth Center
Sun 10:41:54 AM 33.6467 -96.9444 343° North 379 436 34,000  Level Fort Worth Center
Sun 10:42:54 AM 33.7469 -96.9839 342° North 384 442 34,000  Level Fort Worth Center
Sun 10:43:54 AM 33.8492 -97.0258 341° North 384 442 34,000  Level Fort Worth Center
Sun 10:44:54 AM 33.9517 -97.0631 343° North 378 435 34,000  Level Fort Worth Center
Sun 10:45:54 AM 34.0561 -97.1078 340° North 390 449 34,000  Level Fort Worth Center
Sun 10:46:54 AM 34.1439 -97.1475 339° North 381 438 34,000  Level Fort Worth Center
Sun 10:47:54 AM 34.2461 -97.1847 343° North 381 438 34,000  Level Fort Worth Center
Sun 10:48:54 AM 34.3486 -97.2247 342° North 381 438 34,000  Level Fort Worth Center
Sun 10:49:54 AM 34.4486 -97.2625 343° North 381 438 34,000  Level Fort Worth Center
Sun 10:50:54 AM 34.5467 -97.3000 343° North 381 438 34,000  Level Fort Worth Center
Sun 10:51:54 AM 34.6469 -97.3378 343° North 381 438 34,000  Level Fort Worth Center
Sun 10:52:54 AM 34.7492 -97.3781 342° North 381 438 34,000  Level Fort Worth Center
Sun 10:53:54 AM 34.8536 -97.4186 342° North 386 444 34,000  Level Fort Worth Center
Sun 10:54:54 AM 34.9558 -97.4567 343° North 386 444 34,000  Level Fort Worth Center
Sun 10:56:35 AM 35.1250 -97.5200 343° North 386 444 34,000  Level Kansas City Center
Sun 10:57:37 AM 35.2292 -97.5600 343° North 388 447 34,000  Level Kansas City Center
Sun 10:58:40 AM 35.3350 -97.6003 343° North 393 452 34,000  Level Kansas City Center
Sun 10:59:42 AM 35.4489 -97.5858 North 420 483 34,000  Level Kansas City Center
Sun 11:00:43 AM 35.5864 -97.5475 13° North 416 479 34,000  Level Kansas City Center
Sun 11:01:44 AM 35.7011 -97.5153 13° North 417 480 34,000  Level Kansas City Center
Sun 11:02:48 AM 35.8147 -97.4836 13° North 417 480 34,000  Level Kansas City Center
Sun 11:03:48 AM 35.9289 -97.4517 13° North 417 480 34,000  Level Kansas City Center
Sun 11:04:48 AM 36.0436 -97.4200 13° North 420 483 34,000 -532 Level Kansas City Center
Sun 11:05:52 AM 36.1583 -97.3878 13° North 422 486 32,900 -1,694 Descending Kansas City Center
Sun 11:06:52 AM 36.2722 -97.3572 12° North 420 483 30,500 -2,371 Descending Kansas City Center
Sun 11:07:56 AM 36.3869 -97.3239 13° North 422 486 28,000 -2,661 Descending Kansas City Center
Sun 11:08:56 AM 36.5300 -97.2839 13° North 433 498 25,000 -2,628 Descending Kansas City Center
Sun 11:09:57 AM 36.6500 -97.2531 12° North 440 506 22,700 -2,274 Descending Kansas City Center
Sun 11:11:00 AM 36.7639 -97.2200 13° North 426 490 20,300 -2,323 Descending Kansas City Center
Sun 11:12:01 AM 36.8642 -97.1919 13° North 408 470 17,900 -2,160 Descending Kansas City Center
Sun 11:13:05 AM 36.9711 -97.1614 13° North 398 458 15,800 -2,471 Descending Kansas City Center
Sun 11:13:26 AM 37.0300 -97.1439 13° North 394 453 14,400 -2,852 Descending Kansas City Center
Sun 11:14:06 AM 37.0994 -97.1258 12° North 396 456 12,900 -2,118 Descending Kansas City Center
Sun 11:15:08 AM 37.2036 -97.1072 North 378 435 10,800 -1,926 Descending Kansas City Center
Sun 11:15:27 AM 37.2361 -97.1219 340° North 368 423 10,300 -787 Descending Kansas City Center
Sun 11:16:09 AM 37.2942 -97.1608 332° Northwest 358 412 10,000 -300 Descending Kansas City Center
Sun 11:16:27 AM 37.3222 -97.1847 326° Northwest 350 403 10,000 -98 Level Kansas City Center
Sun 11:17:10 AM 37.3731 -97.2192 332° Northwest 328 377 9,900 -448 Descending Kansas City Center
Sun 11:17:34 AM 37.4017 -97.2433 326° Northwest 289 333 9,500 -844 Descending Kansas City Center
Sun 11:18:14 AM 37.4422 -97.2736 329° Northwest 296 341 9,000 -971 Descending Kansas City Center
Sun 11:18:42 AM 37.4814 -97.3047 328° Northwest 285 328 8,400 -984 Descending Kansas City Center
Sun 11:19:15 AM 37.5111 -97.3256 331° Northwest 289 333 8,000 -1,034 Descending Kansas City Center
Sun 11:19:40 AM 37.5506 -97.3467 337° Northwest 285 328 7,400 -1,143 Descending Kansas City Center
Sun 11:20:18 AM 37.6000 -97.3406 North 287 330 6,800 -1,235 Descending Kansas City Center
Sun 11:20:48 AM 37.6397 -97.3353 North 275 316 6,000 -1,500 Descending Kansas City Center
Sun 11:21:18 AM 37.6750 -97.3275 10° North 280 322 5,300 -1,455 Descending Kansas City Center
Sun 11:21:54 AM 37.7194 -97.3125 15° North 272 313 4,400 -1,333 Descending Kansas City Center
Sun 11:22:21 AM 37.7461 -97.3208 346° North 277 319 3,900 -1,082 Descending Kansas City Center
Sun 11:22:55 AM 37.7581 -97.3619 290° West 209 241 3,300 -787 Descending Kansas City Center
Sun 11:23:22 AM 37.7475 -97.3803 234° Southwest 217 250 3,100 -581 Descending Kansas City Center
Sun 11:23:57 AM 37.7250 -97.3883 196° South 122 140 2,700 -686 Descending Kansas City Center

Login

Don't have an account? Register now (free) for customized features, flight alerts, and more!